Time;durP1;ratioP1;P1;durP2;ratioP2;P2;SDS_P1;SDS_P2;PMS_P1;PMS_P2;Temp;Humidity;BMP_temperature;BMP_pressure;BME280_temperature;BME280_humidity;BME280_pressure;Samples;Min_cycle;Max_cycle;Signal;HPM_P1;HPM_P2
2022/05/31 00:01:51;;;;;;;3.10;2.00;;;12.80;99.90;;;;;;5012410;28;20247;-53
2022/05/31 00:04:17;;;;;;;2.40;2.10;;;12.80;99.90;;;;;;5068835;22;20898;-55
2022/05/31 00:06:44;;;;;;;3.20;2.13;;;12.70;99.90;;;;;;5011331;28;20182;-57
2022/05/31 00:09:09;;;;;;;2.10;2.00;;;12.70;99.90;;;;;;5008216;28;20175;-58
2022/05/31 00:11:38;;;;;;;2.90;2.23;;;12.60;99.90;;;;;;5032194;28;20175;-56
2022/05/31 00:14:04;;;;;;;2.07;1.90;;;12.50;99.90;;;;;;5031410;28;20190;-55
2022/05/31 00:16:31;;;;;;;3.10;2.30;;;12.40;99.90;;;;;;5032049;28;20207;-56
2022/05/31 00:18:56;;;;;;;2.77;2.20;;;12.40;99.90;;;;;;5032267;28;20251;-56
2022/05/31 00:21:30;;;;;;;2.30;2.13;;;12.40;99.90;;;;;;5030288;28;20247;-52
2022/05/31 00:23:55;;;;;;;2.80;2.33;;;12.30;99.90;;;;;;5011941;28;20175;-56
2022/05/31 00:26:21;;;;;;;2.10;2.00;;;12.30;99.90;;;;;;5012088;28;20250;-58
2022/05/31 00:28:46;;;;;;;3.00;2.40;;;12.20;99.90;;;;;;5012207;28;20176;-57
2022/05/31 00:31:12;;;;;;;3.00;2.03;;;12.20;99.90;;;;;;5012139;28;20625;-53
2022/05/31 00:33:37;;;;;;;2.80;2.13;;;12.20;99.90;;;;;;5012024;28;20176;-55
2022/05/31 00:36:04;;;;;;;2.40;2.20;;;14.00;99.90;;;;;;5011936;28;20231;-56
2022/05/31 00:38:30;;;;;;;3.23;2.27;;;12.20;99.90;;;;;;5012007;28;20275;-58
2022/05/31 00:41:23;;;;;;;2.53;2.20;;;12.10;99.90;;;;;;5011932;28;20260;-58
2022/05/31 00:43:41;;;;;;;2.73;2.27;;;12.10;99.90;;;;;;5011660;28;20267;-58
2022/05/31 00:46:06;;;;;;;2.20;2.10;;;12.00;99.90;;;;;;5011488;28;20275;-54
2022/05/31 00:48:37;;;;;;;2.40;2.30;;;12.00;99.90;;;;;;5011613;28;20180;-55
2022/05/31 00:51:12;;;;;;;2.47;2.13;;;12.00;99.90;;;;;;5011230;28;20172;-57
2022/05/31 00:53:44;;;;;;;3.10;2.13;;;11.90;99.90;;;;;;5011756;28;20202;-54
2022/05/31 00:56:15;;;;;;;2.70;2.40;;;11.90;99.90;;;;;;5011727;28;20201;-55
2022/05/31 00:58:58;;;;;;;2.33;2.13;;;11.90;99.90;;;;;;5011771;28;20190;-52
2022/05/31 01:01:24;;;;;;;2.63;2.43;;;11.80;99.90;;;;;;5011880;28;20230;-56
2022/05/31 01:03:49;;;;;;;2.63;2.43;;;11.80;99.90;;;;;;5011490;28;20172;-55
2022/05/31 01:06:15;;;;;;;2.50;2.30;;;11.70;99.90;;;;;;5011691;28;20216;-53
2022/05/31 01:08:45;;;;;;;2.40;2.20;;;11.70;99.90;;;;;;5011605;28;20555;-56
2022/05/31 01:11:17;;;;;;;3.20;2.00;;;11.70;99.90;;;;;;5011907;28;20203;-54
2022/05/31 01:13:43;;;;;;;2.37;2.17;;;11.70;99.90;;;;;;4993548;28;20187;-55
2022/05/31 01:16:11;;;;;;;2.30;2.10;;;11.60;99.90;;;;;;5011477;28;20276;-57
2022/05/31 01:18:37;;;;;;;3.87;2.30;;;11.60;99.90;;;;;;5011543;28;20175;-57
2022/05/31 01:21:03;;;;;;;2.97;2.60;;;11.60;99.90;;;;;;5011621;28;20189;-57
2022/05/31 01:23:42;;;;;;;2.20;1.97;;;11.50;99.90;;;;;;5011444;28;20188;-58
2022/05/31 01:26:23;;;;;;;2.37;2.07;;;11.50;99.90;;;;;;5011646;28;20200;-57
2022/05/31 01:29:10;;;;;;;2.67;2.47;;;11.50;99.90;;;;;;5011769;28;20580;-57
2022/05/31 01:31:54;;;;;;;3.30;2.57;;;11.40;99.90;;;;;;5011601;28;20171;-56
2022/05/31 01:34:49;;;;;;;5.07;2.20;;;11.30;99.90;;;;;;5011027;28;20696;-57
2022/05/31 01:37:14;;;;;;;2.70;2.50;;;11.30;99.90;;;;;;5011457;28;20204;-57
2022/05/31 01:40:13;;;;;;;2.67;2.37;;;11.30;99.90;;;;;;4993756;28;20478;-57
2022/05/31 01:42:42;;;;;;;4.07;2.43;;;11.30;99.90;;;;;;5007565;28;20235;-57
2022/05/31 01:45:14;;;;;;;2.40;2.20;;;11.20;99.90;;;;;;5010951;28;20189;-56
2022/05/31 01:47:40;;;;;;;3.47;2.30;;;11.20;99.90;;;;;;5011505;28;20203;-56
2022/05/31 01:50:11;;;;;;;3.37;2.60;;;11.20;99.90;;;;;;5011445;28;20172;-57
2022/05/31 01:52:37;;;;;;;2.90;2.60;;;11.20;99.90;;;;;;4993839;28;20588;-56
2022/05/31 01:55:03;;;;;;;2.70;2.50;;;11.20;99.90;;;;;;5011101;28;20200;-55
2022/05/31 01:57:32;;;;;;;2.63;2.30;;;11.20;99.90;;;;;;5012608;28;20196;-54
2022/05/31 02:00:06;;;;;;;2.73;2.53;;;11.10;99.90;;;;;;5015199;28;20192;-55
2022/05/31 02:02:31;;;;;;;2.40;2.20;;;11.10;99.90;;;;;;5015113;28;20639;-55
2022/05/31 02:04:57;;;;;;;2.83;2.63;;;11.00;99.90;;;;;;5014527;28;20204;-53
2022/05/31 02:07:24;;;;;;;3.77;3.00;;;11.10;99.90;;;;;;5015288;28;20263;-55
2022/05/31 02:09:52;;;;;;;3.17;2.77;;;11.00;99.90;;;;;;5014931;28;20176;-53
2022/05/31 02:12:20;;;;;;;3.10;2.80;;;11.00;99.90;;;;;;5015011;28;20538;-54
2022/05/31 02:14:46;;;;;;;3.63;2.67;;;11.00;99.90;;;;;;5014287;28;20565;-56
2022/05/31 02:17:11;;;;;;;2.50;2.23;;;11.00;99.90;;;;;;5014557;28;20189;-57
2022/05/31 02:19:38;;;;;;;2.73;2.40;;;11.00;99.90;;;;;;5014472;28;20184;-53
2022/05/31 02:22:08;;;;;;;2.87;2.33;;;11.00;99.90;;;;;;5014518;28;20214;-57
2022/05/31 02:24:34;;;;;;;2.47;2.27;;;11.00;99.90;;;;;;5014281;28;20283;-52
2022/05/31 02:27:00;;;;;;;2.30;2.10;;;10.90;99.90;;;;;;5014775;28;20204;-52
2022/05/31 02:29:28;;;;;;;2.23;2.03;;;10.90;99.90;;;;;;5014373;28;20168;-55
2022/05/31 02:31:56;;;;;;;3.03;2.10;;;10.90;99.90;;;;;;5014552;28;20173;-56
2022/05/31 02:34:26;;;;;;;2.47;2.27;;;10.90;99.90;;;;;;5014121;28;20196;-54
2022/05/31 02:36:52;;;;;;;3.40;2.07;;;10.90;99.90;;;;;;5014290;28;20203;-52
2022/05/31 02:39:18;;;;;;;2.53;2.23;;;10.80;99.90;;;;;;5014348;28;20595;-55
2022/05/31 02:41:44;;;;;;;2.30;2.10;;;10.80;99.90;;;;;;5014469;28;20211;-53
2022/05/31 02:44:10;;;;;;;2.70;2.50;;;10.70;99.90;;;;;;5013902;28;20287;-53
2022/05/31 02:46:36;;;;;;;2.50;2.30;;;10.70;99.90;;;;;;5014323;28;20207;-53
2022/05/31 02:49:04;;;;;;;2.30;2.10;;;10.60;99.90;;;;;;5014152;28;20207;-55
2022/05/31 02:51:34;;;;;;;2.13;2.00;;;10.60;99.90;;;;;;5014190;28;20222;-57
2022/05/31 02:54:00;;;;;;;3.17;2.60;;;10.60;99.90;;;;;;5013806;28;20218;-53
2022/05/31 02:56:25;;;;;;;2.80;2.40;;;10.50;99.90;;;;;;5013965;28;20200;-55
2022/05/31 02:58:51;;;;;;;2.47;2.27;;;10.50;99.90;;;;;;5013951;28;20180;-56
2022/05/31 03:01:24;;;;;;;2.20;2.00;;;10.50;99.90;;;;;;5013873;28;20191;-56
2022/05/31 03:03:50;;;;;;;2.50;2.30;;;10.60;99.90;;;;;;5013695;28;20561;-56
2022/05/31 03:06:15;;;;;;;4.13;2.40;;;10.50;99.90;;;;;;5013699;28;20208;-56
2022/05/31 03:08:41;;;;;;;2.93;2.30;;;10.50;99.90;;;;;;5013495;28;20266;-58
2022/05/31 03:11:15;;;;;;;2.87;2.60;;;10.60;99.90;;;;;;5013979;28;20183;-56
2022/05/31 03:13:41;;;;;;;2.67;2.47;;;10.60;99.90;;;;;;5013397;28;20264;-56
2022/05/31 03:16:07;;;;;;;2.50;2.30;;;10.50;99.90;;;;;;5013648;28;20195;-56
2022/05/31 03:18:45;;;;;;;2.13;2.03;;;10.60;99.90;;;;;;5013712;28;20630;-54
2022/05/31 03:21:16;;;;;;;2.23;1.93;;;10.60;99.90;;;;;;5013753;28;20161;-53
2022/05/31 03:23:46;;;;;;;4.40;2.40;;;10.60;99.90;;;;;;5013351;28;20200;-58
2022/05/31 03:26:13;;;;;;;2.40;2.20;;;10.50;99.90;;;;;;5013470;28;20228;-55
2022/05/31 03:28:39;;;;;;;2.87;2.30;;;10.60;99.90;;;;;;4996274;28;20196;-53
2022/05/31 03:31:06;;;;;;;2.13;1.97;;;10.60;99.90;;;;;;4996073;28;20638;-53
2022/05/31 03:33:32;;;;;;;2.53;2.13;;;10.00;99.90;;;;;;4979528;28;20538;-54
2022/05/31 03:35:58;;;;;;;2.60;2.40;;;10.50;99.90;;;;;;5012834;28;20226;-54
2022/05/31 03:38:23;;;;;;;2.20;2.00;;;10.50;99.90;;;;;;5013207;28;20211;-55
2022/05/31 03:41:01;;;;;;;2.23;2.03;;;10.50;99.90;;;;;;5013191;28;20169;-58
2022/05/31 03:43:33;;;;;;;3.27;2.20;;;10.50;99.90;;;;;;5013056;28;20176;-57
2022/05/31 03:45:59;;;;;;;2.50;2.30;;;10.50;99.90;;;;;;5013349;28;20200;-55
2022/05/31 03:48:25;;;;;;;3.37;2.33;;;10.50;99.90;;;;;;5012934;28;20189;-56
2022/05/31 03:51:04;;;;;;;2.40;2.20;;;10.60;99.90;;;;;;5013195;28;20271;-56
2022/05/31 03:53:30;;;;;;;2.43;2.23;;;10.60;99.90;;;;;;5012858;28;20914;-58
2022/05/31 03:55:56;;;;;;;2.30;2.20;;;10.70;99.90;;;;;;5012909;28;20200;-56
2022/05/31 03:58:22;;;;;;;2.30;2.20;;;10.60;99.90;;;;;;5012846;28;20338;-57
2022/05/31 04:00:48;;;;;;;2.07;1.97;;;10.70;99.90;;;;;;4995442;28;20184;-56
2022/05/31 04:03:14;;;;;;;3.60;2.40;;;10.70;99.90;;;;;;5012888;28;20168;-56
2022/05/31 04:05:40;;;;;;;2.43;2.20;;;10.80;99.90;;;;;;5012175;28;20208;-57
2022/05/31 04:08:10;;;;;;;1.90;1.80;;;10.70;99.90;;;;;;5012763;28;20254;-57
2022/05/31 04:10:37;;;;;;;3.50;2.20;;;10.70;99.90;;;;;;5012846;28;20606;-57
2022/05/31 04:13:03;;;;;;;2.50;2.30;;;10.80;99.90;;;;;;5012555;28;20181;-57
2022/05/31 04:15:29;;;;;;;2.43;2.10;;;10.70;99.90;;;;;;5012189;28;20192;-53
2022/05/31 04:17:54;;;;;;;2.30;2.10;;;10.80;99.90;;;;;;5012507;28;20207;-56
2022/05/31 04:20:20;;;;;;;2.40;2.13;;;10.80;99.90;;;;;;5011689;28;20227;-56
2022/05/31 04:22:46;;;;;;;2.30;2.10;;;10.80;99.90;;;;;;5012394;28;20250;-60
2022/05/31 04:25:12;;;;;;;2.37;1.93;;;10.80;99.90;;;;;;5012125;28;20193;-59
2022/05/31 04:27:38;;;;;;;2.10;2.00;;;11.00;99.90;;;;;;5012613;28;20188;-58
2022/05/31 04:30:04;;;;;;;2.33;2.13;;;11.00;99.90;;;;;;5012462;28;20208;-57
2022/05/31 04:32:29;;;;;;;2.10;1.90;;;11.10;99.90;;;;;;5012285;28;20191;-56
2022/05/31 04:34:55;;;;;;;2.50;2.30;;;11.10;99.90;;;;;;5012024;28;20192;-54
2022/05/31 04:37:21;;;;;;;2.50;2.30;;;11.30;99.90;;;;;;5011405;28;20242;-56
2022/05/31 04:39:47;;;;;;;2.70;2.50;;;11.40;99.90;;;;;;5006389;28;20259;-57
2022/05/31 04:42:12;;;;;;;2.60;2.37;;;11.50;99.90;;;;;;5011981;28;20259;-53
2022/05/31 04:44:38;;;;;;;2.83;2.57;;;11.60;99.90;;;;;;5011944;28;20208;-57
2022/05/31 04:47:05;;;;;;;2.83;2.37;;;11.70;99.90;;;;;;5011239;28;20230;-56
2022/05/31 04:49:30;;;;;;;2.27;2.10;;;11.80;99.90;;;;;;5011596;28;20543;-54
2022/05/31 04:51:56;;;;;;;2.67;2.20;;;11.80;99.90;;;;;;5012305;28;20299;-56
2022/05/31 04:54:23;;;;;;;2.20;2.00;;;11.90;99.90;;;;;;5011856;28;20250;-56
2022/05/31 04:56:50;;;;;;;2.10;2.00;;;11.90;99.90;;;;;;5012061;28;20204;-56
2022/05/31 04:59:17;;;;;;;2.17;1.97;;;12.00;99.90;;;;;;5012042;28;20214;-53
2022/05/31 05:01:43;;;;;;;2.10;1.90;;;12.10;99.90;;;;;;5011875;28;20709;-56
2022/05/31 05:04:09;;;;;;;2.97;2.17;;;13.40;99.90;;;;;;5010932;28;20238;-53
2022/05/31 05:06:35;;;;;;;2.13;1.93;;;12.20;99.90;;;;;;5011129;28;20205;-54
2022/05/31 05:09:00;;;;;;;1.97;1.83;;;12.20;99.90;;;;;;5006866;28;20246;-54
2022/05/31 05:11:26;;;;;;;3.17;1.93;;;12.30;99.90;;;;;;5011883;28;20172;-52
2022/05/31 05:13:55;;;;;;;3.73;2.30;;;12.40;99.90;;;;;;5011325;28;20254;-55
2022/05/31 05:16:21;;;;;;;1.90;1.80;;;12.40;99.90;;;;;;5011688;28;20184;-58
2022/05/31 05:18:47;;;;;;;2.37;1.90;;;12.40;99.90;;;;;;5010613;28;20180;-57
2022/05/31 05:21:14;;;;;;;2.23;2.03;;;12.60;99.90;;;;;;5010829;28;20176;-57
2022/05/31 05:23:40;;;;;;;2.30;2.10;;;12.70;99.90;;;;;;5011069;28;20173;-57
2022/05/31 05:26:07;;;;;;;2.10;2.00;;;12.80;99.90;;;;;;5011218;28;20196;-57
2022/05/31 05:31:30;;;;;;;1.90;1.80;;;13.10;99.90;;;;;;5006176;28;21308;-56
2022/05/31 05:33:57;;;;;;;1.73;1.63;;;13.20;99.90;;;;;;5011393;28;20176;-58
2022/05/31 05:36:23;;;;;;;2.03;1.83;;;13.30;99.90;;;;;;5004519;28;20535;-52
2022/05/31 05:38:48;;;;;;;2.70;1.97;;;13.40;99.90;;;;;;4993274;28;20187;-58
2022/05/31 05:41:15;;;;;;;1.83;1.73;;;13.50;99.90;;;;;;5013104;28;20208;-58
2022/05/31 05:43:41;;;;;;;1.73;1.63;;;13.70;99.90;;;;;;5013936;28;20180;-57
2022/05/31 05:46:19;;;;;;;2.80;1.93;;;13.70;99.90;;;;;;4996847;28;20213;-58
2022/05/31 05:48:45;;;;;;;2.67;1.70;;;13.90;99.90;;;;;;5002164;28;20182;-57
2022/05/31 05:51:23;;;;;;;3.30;1.90;;;14.00;99.90;;;;;;5011126;28;20269;-59
2022/05/31 05:53:50;;;;;;;2.00;1.90;;;14.10;99.90;;;;;;4997419;28;20250;-54
2022/05/31 05:56:16;;;;;;;2.40;2.17;;;14.40;99.90;;;;;;5000833;28;20262;-56
2022/05/31 05:58:42;;;;;;;2.50;2.30;;;14.30;99.90;;;;;;5015084;28;20578;-57
2022/05/31 06:01:19;;;;;;;2.50;2.30;;;14.50;99.90;;;;;;5015210;28;20191;-56
2022/05/31 06:04:12;;;;;;;2.13;1.93;;;14.60;99.90;;;;;;5014745;28;20179;-56
2022/05/31 06:06:41;;;;;;;2.17;2.00;;;14.70;99.90;;;;;;5015136;28;20188;-55
2022/05/31 06:09:19;;;;;;;2.17;1.93;;;14.80;99.90;;;;;;4986801;28;20188;-56
2022/05/31 06:11:55;;;;;;;2.20;2.00;;;14.90;99.90;;;;;;4995661;28;20607;-56
2022/05/31 06:14:24;;;;;;;1.70;1.60;;;14.90;99.90;;;;;;4994790;28;20219;-58
2022/05/31 06:16:54;;;;;;;2.00;1.80;;;15.00;99.90;;;;;;4995123;28;20236;-53
2022/05/31 06:19:31;;;;;;;2.00;1.60;;;15.10;99.90;;;;;;4995246;28;20596;-54
2022/05/31 06:21:58;;;;;;;2.93;1.70;;;15.10;99.90;;;;;;4995187;28;20224;-56
2022/05/31 06:24:27;;;;;;;2.10;2.00;;;15.20;99.90;;;;;;4994937;28;20651;-56
2022/05/31 06:26:52;;;;;;;2.00;1.90;;;15.20;99.90;;;;;;4995096;28;20212;-56
2022/05/31 06:29:18;;;;;;;2.10;2.00;;;15.30;99.90;;;;;;4995122;28;20216;-56
2022/05/31 06:31:43;;;;;;;2.70;2.50;;;15.40;99.90;;;;;;4994897;28;20181;-57
2022/05/31 06:34:10;;;;;;;2.90;2.60;;;15.40;99.90;;;;;;4994772;28;20709;-54
2022/05/31 06:36:35;;;;;;;2.70;2.37;;;15.50;99.90;;;;;;4995026;28;20193;-54
2022/05/31 06:39:01;;;;;;;2.50;2.30;;;15.60;99.90;;;;;;4977367;28;20189;-54
2022/05/31 06:41:26;;;;;;;2.47;2.27;;;15.60;99.90;;;;;;4994985;28;20184;-54
2022/05/31 06:43:52;;;;;;;3.07;2.00;;;15.60;99.90;;;;;;4994332;28;20177;-58
2022/05/31 06:46:18;;;;;;;2.67;2.10;;;15.50;99.90;;;;;;5011786;28;20204;-55
2022/05/31 06:48:43;;;;;;;1.80;1.70;;;15.60;99.90;;;;;;5014499;28;20549;-57
2022/05/31 06:51:12;;;;;;;2.87;2.00;;;15.50;99.90;;;;;;5014457;28;20542;-57
2022/05/31 06:59:08;;;;;;;2.20;2.00;;;15.60;99.90;;;;;;5014454;28;20184;-57
2022/05/31 07:01:37;;;;;;;2.00;1.90;;;15.60;99.90;;;;;;5014355;28;20176;-57
2022/05/31 07:04:04;;;;;;;1.87;1.77;;;15.50;99.90;;;;;;5013709;28;20176;-58
2022/05/31 07:06:32;;;;;;;2.10;1.90;;;15.60;99.90;;;;;;5014127;28;20169;-58
2022/05/31 07:08:57;;;;;;;2.50;2.30;;;15.70;99.90;;;;;;5013998;28;20260;-58
2022/05/31 07:11:23;;;;;;;2.40;2.20;;;15.90;99.90;;;;;;5014232;28;20251;-58
2022/05/31 07:13:49;;;;;;;1.90;1.80;;;15.90;99.90;;;;;;5013706;28;20840;-58
2022/05/31 07:16:15;;;;;;;2.27;2.10;;;16.00;99.90;;;;;;5013907;28;20192;-58
2022/05/31 07:18:41;;;;;;;1.93;1.77;;;16.10;99.90;;;;;;5013842;28;20172;-59
2022/05/31 07:21:06;;;;;;;2.33;2.10;;;16.00;99.90;;;;;;4996333;28;20279;-58
2022/05/31 07:23:32;;;;;;;2.13;1.93;;;16.10;99.90;;;;;;5013534;28;20275;-57
2022/05/31 07:26:03;;;;;;;3.13;2.00;;;16.10;99.90;;;;;;5013780;28;20196;-55
2022/05/31 07:28:29;;;;;;;2.40;2.20;;;16.50;99.90;;;;;;5013733;28;20169;-58
2022/05/31 07:30:55;;;;;;;2.17;2.03;;;16.30;99.90;;;;;;5013921;28;20228;-58
2022/05/31 07:33:21;;;;;;;2.23;2.10;;;16.40;99.90;;;;;;5013669;28;20192;-52
2022/05/31 07:35:49;;;;;;;2.33;2.13;;;16.50;99.90;;;;;;5013336;28;20338;-54
2022/05/31 07:38:20;;;;;;;2.30;2.10;;;16.60;99.90;;;;;;5013394;28;20196;-55
2022/05/31 07:40:46;;;;;;;2.17;1.97;;;16.70;99.90;;;;;;5013431;28;20180;-54
2022/05/31 07:43:11;;;;;;;3.17;2.20;;;16.80;99.90;;;;;;5013496;28;20256;-56
2022/05/31 07:45:37;;;;;;;2.00;1.80;;;16.90;99.90;;;;;;5013361;28;20288;-54
2022/05/31 07:48:04;;;;;;;2.40;2.20;;;16.90;99.90;;;;;;5013331;28;20169;-57
2022/05/31 07:50:29;;;;;;;3.83;2.53;;;16.90;99.90;;;;;;5013498;28;20173;-58
2022/05/31 07:52:55;;;;;;;2.40;2.20;;;16.80;99.90;;;;;;5013221;28;20543;-54
2022/05/31 07:55:20;;;;;;;2.60;2.17;;;16.80;99.90;;;;;;5012833;28;20200;-55
2022/05/31 08:00:31;;;;;;;2.97;2.30;;;17.20;99.90;;;;;;5013144;28;20176;-57
2022/05/31 08:02:57;;;;;;;2.20;2.00;;;17.00;99.90;;;;;;4995459;28;20171;-53
2022/05/31 08:05:22;;;;;;;2.30;1.97;;;16.90;99.90;;;;;;5012459;28;20280;-55
2022/05/31 08:07:49;;;;;;;2.37;2.10;;;17.20;99.90;;;;;;5012861;28;20636;-54
2022/05/31 08:10:17;;;;;;;2.40;1.83;;;17.20;99.90;;;;;;5012928;28;20661;-52
2022/05/31 08:12:43;;;;;;;2.20;2.00;;;17.30;99.90;;;;;;5012837;28;20584;-54
2022/05/31 08:15:10;;;;;;;2.63;2.20;;;17.40;99.90;;;;;;5012528;28;20195;-56
2022/05/31 08:17:36;;;;;;;3.30;2.10;;;17.40;99.90;;;;;;5012672;28;20198;-52
2022/05/31 08:20:03;;;;;;;4.57;2.30;;;17.50;99.90;;;;;;5003724;28;20239;-52
2022/05/31 08:22:28;;;;;;;2.10;2.00;;;17.40;99.90;;;;;;4993107;28;20165;-54
2022/05/31 08:24:54;;;;;;;2.20;2.00;;;17.30;99.90;;;;;;4992690;28;20204;-53
2022/05/31 08:27:19;;;;;;;2.40;2.00;;;17.40;99.90;;;;;;4993419;28;20182;-54
2022/05/31 08:29:45;;;;;;;2.33;2.13;;;17.40;99.90;;;;;;5009597;28;20181;-55
2022/05/31 08:32:10;;;;;;;2.40;2.20;;;17.40;99.90;;;;;;5012628;28;20530;-55
2022/05/31 08:34:36;;;;;;;2.60;2.40;;;17.60;99.90;;;;;;5012072;28;20211;-54
2022/05/31 08:37:02;;;;;;;3.17;2.87;;;17.60;99.90;;;;;;5012421;28;20293;-52
2022/05/31 08:39:28;;;;;;;2.83;2.57;;;17.50;99.90;;;;;;5012502;28;20175;-56
2022/05/31 08:42:04;;;;;;;2.60;2.40;;;17.60;99.90;;;;;;5012448;28;20579;-55
2022/05/31 08:44:36;;;;;;;3.40;2.50;;;17.50;99.90;;;;;;4994424;28;20199;-53
2022/05/31 08:47:31;;;;;;;3.13;2.83;;;17.70;99.90;;;;;;5012183;28;20171;-57
2022/05/31 08:53:26;;;;;;;4.13;2.80;;;17.90;99.90;;;;;;5013864;28;20243;-56
2022/05/31 08:58:51;;;;;;;3.10;2.80;;;18.30;99.90;;;;;;5012382;28;20188;-57
2022/05/31 09:01:22;;;;;;;3.47;3.13;;;18.40;99.90;;;;;;5011980;28;20626;-57
2022/05/31 09:04:15;;;;;;;2.93;2.70;;;18.40;99.90;;;;;;5011778;28;20181;-52
2022/05/31 09:06:54;;;;;;;2.63;2.43;;;18.30;99.90;;;;;;4950945;28;20237;-57
2022/05/31 09:09:24;;;;;;;3.03;2.73;;;18.20;99.90;;;;;;4951402;29;20190;-53
2022/05/31 09:12:12;;;;;;;3.10;2.43;;;18.10;99.90;;;;;;4951181;29;20193;-58
2022/05/31 09:15:21;;;;;;;3.37;2.53;;;18.20;99.90;;;;;;4950831;28;20202;-57
2022/05/31 09:17:59;;;;;;;4.33;2.60;;;18.30;99.90;;;;;;4931833;29;20219;-52
2022/05/31 09:20:46;;;;;;;2.27;2.13;;;18.40;99.90;;;;;;4932065;29;20237;-56
2022/05/31 09:23:18;;;;;;;3.10;2.90;;;18.70;99.90;;;;;;4932010;29;20187;-55
2022/05/31 09:25:46;;;;;;;4.33;2.70;;;18.90;99.90;;;;;;4931490;29;20316;-56
2022/05/31 09:28:53;;;;;;;3.13;2.83;;;19.10;99.90;;;;;;4930764;29;20205;-56
2022/05/31 09:31:45;;;;;;;3.07;2.80;;;19.30;99.90;;;;;;4929276;29;20204;-55
2022/05/31 09:34:48;;;;;;;2.80;2.30;;;19.40;99.90;;;;;;4915671;29;20179;-54
2022/05/31 09:37:51;;;;;;;2.77;2.43;;;19.30;99.90;;;;;;4931820;29;20599;-53
2022/05/31 09:40:33;;;;;;;2.60;2.40;;;19.60;99.90;;;;;;4931929;29;20179;-54
2022/05/31 09:43:35;;;;;;;2.87;2.53;;;19.80;99.90;;;;;;4939842;28;20197;-56
2022/05/31 09:46:09;;;;;;;2.40;2.20;;;19.80;99.90;;;;;;4970193;28;20671;-58
2022/05/31 09:49:10;;;;;;;2.40;2.20;;;19.90;99.90;;;;;;4970090;28;20186;-57
2022/05/31 09:51:40;;;;;;;2.40;1.93;;;20.30;99.90;;;;;;4970079;28;20268;-56
2022/05/31 09:57:20;;;;;;;1.70;1.60;;;20.50;99.90;;;;;;4950716;29;20266;-58
2022/05/31 09:59:49;;;;;;;1.87;1.47;;;20.30;99.80;;;;;;4950520;29;20269;-56
2022/05/31 10:02:24;;;;;;;1.30;1.20;;;20.20;99.20;;;;;;4950837;29;20530;-54
2022/05/31 10:04:50;;;;;;;1.58;1.48;;;20.20;99.90;;;;;;4950133;29;20591;-58
2022/05/31 10:07:35;;;;;;;2.13;2.03;;;20.50;99.80;;;;;;4950821;29;20580;-58
2022/05/31 10:10:08;;;;;;;2.87;2.27;;;20.70;99.90;;;;;;4950589;29;20306;-59
2022/05/31 10:12:34;;;;;;;2.13;1.95;;;20.60;99.90;;;;;;4950663;29;20198;-58
2022/05/31 10:15:03;;;;;;;3.77;1.90;;;20.60;99.90;;;;;;4950263;29;20199;-58
2022/05/31 10:17:43;;;;;;;2.60;1.88;;;20.60;99.90;;;;;;4950679;28;20301;-57
2022/05/31 10:20:24;;;;;;;3.58;1.90;;;20.70;99.90;;;;;;4954090;29;20171;-56
2022/05/31 10:23:15;;;;;;;2.15;1.67;;;20.60;99.90;;;;;;4954342;29;20684;-56
2022/05/31 10:25:45;;;;;;;1.65;1.52;;;20.70;99.90;;;;;;4953720;29;20202;-56
2022/05/31 10:28:20;;;;;;;2.35;1.17;;;20.90;99.70;;;;;;4954264;29;20203;-58
2022/05/31 10:31:03;;;;;;;3.40;1.38;;;21.00;99.10;;;;;;4975893;28;20184;-54
2022/05/31 10:33:29;;;;;;;1.30;1.20;;;21.10;95.90;;;;;;5014316;28;20537;-56
2022/05/31 10:36:13;;;;;;;1.70;1.60;;;21.10;95.20;;;;;;5013450;28;20198;-54
2022/05/31 10:38:41;;;;;;;2.83;1.67;;;21.10;99.90;;;;;;5014603;28;20202;-52
2022/05/31 10:41:12;;;;;;;3.67;1.38;;;21.30;97.40;;;;;;5014539;28;20274;-58
2022/05/31 10:43:50;;;;;;;2.35;1.30;;;21.30;97.50;;;;;;5014266;28;20671;-58
2022/05/31 10:46:35;;;;;;;1.80;1.58;;;21.40;96.40;;;;;;5014455;28;20195;-56
2022/05/31 10:49:16;;;;;;;2.08;1.40;;;21.30;97.40;;;;;;5013370;28;20168;-54
2022/05/31 10:52:06;;;;;;;1.80;1.70;;;21.20;97.30;;;;;;5014478;28;20206;-55
2022/05/31 10:54:51;;;;;;;2.10;1.60;;;21.40;96.90;;;;;;4942976;29;20817;-56
2022/05/31 10:57:41;;;;;;;1.42;1.33;;;21.40;97.00;;;;;;4943395;29;20765;-55
2022/05/31 11:00:12;;;;;;;2.72;1.48;;;21.60;96.00;;;;;;4942566;29;20682;-52
2022/05/31 11:03:05;;;;;;;3.28;1.50;;;21.60;96.80;;;;;;4950218;29;20178;-56
2022/05/31 11:05:50;;;;;;;1.70;1.15;;;21.60;95.50;;;;;;4941990;29;20222;-54
2022/05/31 11:11:30;;;;;;;2.55;1.20;;;21.70;93.30;;;;;;4944643;29;20190;-56
2022/05/31 11:14:22;;;;;;;2.22;1.00;;;21.70;94.40;;;;;;4935415;29;20183;-57
2022/05/31 11:17:09;;;;;;;1.50;1.27;;;21.60;93.90;;;;;;4937772;29;20708;-56
2022/05/31 11:19:51;;;;;;;1.83;0.98;;;21.50;93.70;;;;;;4944356;29;20201;-57
2022/05/31 11:22:34;;;;;;;1.38;1.13;;;21.50;92.90;;;;;;4943264;29;20182;-53
2022/05/31 11:25:30;;;;;;;1.17;0.93;;;21.50;93.40;;;;;;4943320;29;20213;-57
2022/05/31 11:28:23;;;;;;;0.85;0.85;;;21.70;92.20;;;;;;4944474;29;20183;-52
2022/05/31 11:30:57;;;;;;;3.00;1.20;;;21.80;92.50;;;;;;4954308;28;20189;-53
2022/05/31 11:33:38;;;;;;;0.80;0.70;;;22.00;90.90;;;;;;5002480;28;20173;-57
2022/05/31 11:36:18;;;;;;;2.70;1.33;;;22.00;91.20;;;;;;5002502;28;20192;-57
2022/05/31 11:39:02;;;;;;;2.20;1.20;;;22.10;90.40;;;;;;5003535;28;20267;-54
2022/05/31 11:41:33;;;;;;;1.05;0.85;;;22.20;90.80;;;;;;5003580;28;20197;-57
2022/05/31 11:44:30;;;;;;;1.20;1.10;;;22.40;92.20;;;;;;5004644;28;20249;-54
2022/05/31 11:47:22;;;;;;;1.65;1.10;;;22.50;88.90;;;;;;5002232;28;20252;-56
2022/05/31 11:50:14;;;;;;;0.93;0.85;;;22.70;87.70;;;;;;5002548;28;20188;-52
2022/05/31 11:52:56;;;;;;;2.45;1.15;;;22.60;87.00;;;;;;4993971;28;20275;-55
2022/05/31 11:55:28;;;;;;;1.70;0.98;;;22.70;86.90;;;;;;5000928;28;20189;-58
2022/05/31 11:58:33;;;;;;;3.03;1.10;;;22.70;88.20;;;;;;5002532;28;20275;-55
2022/05/31 12:01:23;;;;;;;2.35;0.90;;;22.80;90.20;;;;;;5002860;28;20216;-55
2022/05/31 12:04:11;;;;;;;2.03;1.27;;;22.70;89.20;;;;;;4999185;28;21136;-57
2022/05/31 12:07:09;;;;;;;1.40;0.90;;;22.70;84.60;;;;;;5005304;28;20207;-55
2022/05/31 12:09:42;;;;;;;3.13;1.08;;;22.80;84.40;;;;;;5012791;28;20606;-56
2022/05/31 12:12:22;;;;;;;1.30;0.82;;;22.90;82.90;;;;;;5012847;28;20176;-56
2022/05/31 12:14:59;;;;;;;2.00;0.90;;;22.80;85.70;;;;;;5012217;28;20200;-57
2022/05/31 12:17:32;;;;;;;0.90;0.68;;;23.00;87.90;;;;;;5003512;28;20192;-59
2022/05/31 12:20:13;;;;;;;1.20;0.93;;;23.10;80.80;;;;;;4999579;28;20185;-56
2022/05/31 12:22:47;;;;;;;0.80;0.80;;;23.30;85.90;;;;;;5001196;28;20228;-57
2022/05/31 12:25:20;;;;;;;4.22;1.10;;;23.40;88.50;;;;;;5000845;28;20272;-55
2022/05/31 12:27:53;;;;;;;2.38;1.02;;;23.60;83.60;;;;;;5000316;28;20172;-58
2022/05/31 12:30:22;;;;;;;1.65;0.90;;;23.70;85.20;;;;;;5004834;28;20575;-57
2022/05/31 12:32:53;;;;;;;1.10;1.00;;;23.90;86.20;;;;;;5000155;28;20581;-58
2022/05/31 12:35:30;;;;;;;1.30;0.80;;;23.80;84.30;;;;;;5000926;28;20340;-56
2022/05/31 12:38:02;;;;;;;1.17;1.08;;;23.70;80.70;;;;;;5000437;28;20689;-59
2022/05/31 12:40:27;;;;;;;1.17;1.00;;;24.00;84.20;;;;;;4998928;28;20216;-54
2022/05/31 12:42:53;;;;;;;0.70;0.70;;;24.00;83.60;;;;;;5002019;28;20598;-52
2022/05/31 12:45:21;;;;;;;1.08;1.05;;;24.20;80.20;;;;;;5000762;28;20193;-58
2022/05/31 12:48:23;;;;;;;1.00;0.90;;;24.40;86.90;;;;;;4998138;28;20183;-53
2022/05/31 12:50:55;;;;;;;1.08;0.90;;;24.50;83.90;;;;;;4946464;28;20186;-57
2022/05/31 12:53:23;;;;;;;1.17;1.00;;;24.30;78.00;;;;;;4945925;28;20187;-57
2022/05/31 12:55:58;;;;;;;2.05;0.90;;;24.30;82.20;;;;;;4939699;29;20211;-57
2022/05/31 12:58:35;;;;;;;1.08;0.90;;;24.30;83.10;;;;;;4947532;28;20632;-57
2022/05/31 13:01:27;;;;;;;1.30;1.20;;;24.40;84.70;;;;;;4961989;28;20237;-57
2022/05/31 13:04:07;;;;;;;0.73;0.70;;;24.60;80.30;;;;;;4969522;28;20590;-56
2022/05/31 13:06:58;;;;;;;1.90;0.90;;;24.60;82.10;;;;;;4940983;28;20752;-58
2022/05/31 13:09:23;;;;;;;2.50;1.00;;;24.70;78.90;;;;;;4945977;28;20229;-59
2022/05/31 13:20:33;;;;;;;1.10;1.00;;;24.60;80.40;;;;;;4933892;29;20289;-56
2022/05/31 13:23:04;;;;;;;1.33;0.90;;;24.90;84.40;;;;;;4940306;29;20545;-56
2022/05/31 13:25:37;;;;;;;1.38;0.93;;;25.10;80.00;;;;;;4980462;28;20679;-58
2022/05/31 13:28:03;;;;;;;1.20;0.93;;;25.40;83.40;;;;;;4991753;28;20643;-55
2022/05/31 13:30:41;;;;;;;0.75;0.70;;;25.20;81.70;;;;;;4993950;28;20299;-57
2022/05/31 13:33:19;;;;;;;1.75;0.82;;;25.10;79.10;;;;;;5001518;28;20187;-56
2022/05/31 13:35:45;;;;;;;0.90;0.85;;;24.90;77.40;;;;;;5001432;28;20282;-57
2022/05/31 13:38:22;;;;;;;1.85;0.90;;;24.90;80.60;;;;;;5001154;28;20340;-56
2022/05/31 13:40:51;;;;;;;1.80;0.70;;;25.00;78.00;;;;;;5000499;28;20185;-58
2022/05/31 13:43:50;;;;;;;1.25;0.90;;;25.10;80.10;;;;;;5000077;28;20177;-55
2022/05/31 13:46:26;;;;;;;2.70;1.00;;;25.10;76.10;;;;;;5001947;28;20638;-55